sensor_id;sensor_type;location;lat;lon;timestamp;P1;durP1;ratioP1;P2;durP2;ratioP2
7166;SDS011;3625;51.762;14.320;2022-09-30T04:35:38;8.40;;;7.37;;
7166;SDS011;3625;51.762;14.320;2022-09-30T04:38:06;8.03;;;7.30;;
7166;SDS011;3625;51.762;14.320;2022-09-30T04:40:35;9.13;;;7.77;;
7166;SDS011;3625;51.762;14.320;2022-09-30T04:43:04;9.73;;;8.73;;
7166;SDS011;3625;51.762;14.320;2022-09-30T04:45:33;11.00;;;9.03;;
7166;SDS011;3625;51.762;14.320;2022-09-30T04:48:02;10.17;;;8.73;;
7166;SDS011;3625;51.762;14.320;2022-09-30T04:50:32;12.87;;;9.60;;
7166;SDS011;3625;51.762;14.320;2022-09-30T04:53:23;11.00;;;9.33;;
7166;SDS011;3625;51.762;14.320;2022-09-30T04:55:56;10.03;;;8.80;;
7166;SDS011;3625;51.762;14.320;2022-09-30T04:58:26;9.77;;;8.63;;
7166;SDS011;3625;51.762;14.320;2022-09-30T05:01:02;9.57;;;8.57;;
7166;SDS011;3625;51.762;14.320;2022-09-30T05:03:32;11.20;;;9.03;;
7166;SDS011;3625;51.762;14.320;2022-09-30T05:06:03;10.17;;;9.13;;
7166;SDS011;3625;51.762;14.320;2022-09-30T05:08:48;10.73;;;9.07;;
7166;SDS011;3625;51.762;14.320;2022-09-30T05:11:20;11.60;;;8.73;;
7166;SDS011;3625;51.762;14.320;2022-09-30T05:13:49;10.03;;;8.93;;
7166;SDS011;3625;51.762;14.320;2022-09-30T05:16:18;10.53;;;9.40;;
7166;SDS011;3625;51.762;14.320;2022-09-30T05:18:47;11.30;;;9.67;;
7166;SDS011;3625;51.762;14.320;2022-09-30T05:21:16;13.07;;;9.50;;
7166;SDS011;3625;51.762;14.320;2022-09-30T05:23:46;13.60;;;10.60;;
7166;SDS011;3625;51.762;14.320;2022-09-30T05:26:16;10.83;;;9.43;;
7166;SDS011;3625;51.762;14.320;2022-09-30T05:28:45;13.87;;;10.03;;
7166;SDS011;3625;51.762;14.320;2022-09-30T05:31:48;12.07;;;10.20;;
7166;SDS011;3625;51.762;14.320;2022-09-30T05:34:17;12.83;;;10.20;;
7166;SDS011;3625;51.762;14.320;2022-09-30T05:36:46;12.13;;;9.93;;
7166;SDS011;3625;51.762;14.320;2022-09-30T05:39:16;11.27;;;9.20;;
7166;SDS011;3625;51.762;14.320;2022-09-30T05:41:45;12.37;;;10.83;;
7166;SDS011;3625;51.762;14.320;2022-09-30T05:44:14;13.63;;;11.30;;
7166;SDS011;3625;51.762;14.320;2022-09-30T05:46:42;15.23;;;11.67;;
7166;SDS011;3625;51.762;14.320;2022-09-30T05:49:11;12.63;;;11.13;;
7166;SDS011;3625;51.762;14.320;2022-09-30T05:51:40;12.03;;;10.70;;
7166;SDS011;3625;51.762;14.320;2022-09-30T05:54:09;12.70;;;11.27;;
7166;SDS011;3625;51.762;14.320;2022-09-30T05:56:39;12.57;;;10.90;;
7166;SDS011;3625;51.762;14.320;2022-09-30T05:59:08;15.23;;;10.80;;
7166;SDS011;3625;51.762;14.320;2022-09-30T06:01:36;18.97;;;11.43;;
7166;SDS011;3625;51.762;14.320;2022-09-30T06:04:05;12.23;;;10.57;;
7166;SDS011;3625;51.762;14.320;2022-09-30T06:06:34;12.67;;;11.03;;
7166;SDS011;3625;51.762;14.320;2022-09-30T06:09:04;11.93;;;10.57;;
7166;SDS011;3625;51.762;14.320;2022-09-30T06:11:32;14.13;;;10.67;;
7166;SDS011;3625;51.762;14.320;2022-09-30T06:14:03;15.43;;;11.83;;
7166;SDS011;3625;51.762;14.320;2022-09-30T06:16:31;13.83;;;11.23;;
7166;SDS011;3625;51.762;14.320;2022-09-30T06:19:00;15.13;;;10.43;;
7166;SDS011;3625;51.762;14.320;2022-09-30T06:21:31;12.47;;;10.03;;
7166;SDS011;3625;51.762;14.320;2022-09-30T06:24:01;13.90;;;10.03;;
7166;SDS011;3625;51.762;14.320;2022-09-30T06:26:29;14.07;;;11.03;;
7166;SDS011;3625;51.762;14.320;2022-09-30T06:28:59;13.43;;;10.70;;
7166;SDS011;3625;51.762;14.320;2022-09-30T06:31:34;13.87;;;10.70;;
7166;SDS011;3625;51.762;14.320;2022-09-30T06:34:04;12.97;;;9.33;;
7166;SDS011;3625;51.762;14.320;2022-09-30T06:36:33;15.70;;;11.30;;
7166;SDS011;3625;51.762;14.320;2022-09-30T06:39:02;11.87;;;10.60;;
7166;SDS011;3625;51.762;14.320;2022-09-30T06:41:36;12.50;;;11.03;;
7166;SDS011;3625;51.762;14.320;2022-09-30T06:44:05;15.50;;;12.00;;
7166;SDS011;3625;51.762;14.320;2022-09-30T06:46:35;13.17;;;11.53;;
7166;SDS011;3625;51.762;14.320;2022-09-30T06:49:18;13.67;;;12.07;;
7166;SDS011;3625;51.762;14.320;2022-09-30T06:51:47;16.47;;;13.17;;
7166;SDS011;3625;51.762;14.320;2022-09-30T06:54:20;16.57;;;13.70;;
7166;SDS011;3625;51.762;14.320;2022-09-30T06:56:49;17.83;;;13.90;;
7166;SDS011;3625;51.762;14.320;2022-09-30T06:59:19;16.97;;;12.77;;
7166;SDS011;3625;51.762;14.320;2022-09-30T07:01:49;12.97;;;11.53;;
7166;SDS011;3625;51.762;14.320;2022-09-30T07:04:18;14.10;;;11.80;;
7166;SDS011;3625;51.762;14.320;2022-09-30T07:06:47;15.87;;;12.40;;
7166;SDS011;3625;51.762;14.320;2022-09-30T07:09:16;16.63;;;12.43;;
7166;SDS011;3625;51.762;14.320;2022-09-30T07:11:46;13.70;;;11.57;;
7166;SDS011;3625;51.762;14.320;2022-09-30T07:14:15;16.70;;;11.73;;
7166;SDS011;3625;51.762;14.320;2022-09-30T07:16:44;15.63;;;11.57;;
7166;SDS011;3625;51.762;14.320;2022-09-30T07:19:14;16.00;;;12.63;;
7166;SDS011;3625;51.762;14.320;2022-09-30T07:21:43;13.57;;;11.23;;
7166;SDS011;3625;51.762;14.320;2022-09-30T07:24:11;14.03;;;12.30;;
7166;SDS011;3625;51.762;14.320;2022-09-30T07:26:40;15.67;;;12.90;;
7166;SDS011;3625;51.762;14.320;2022-09-30T07:29:10;13.63;;;11.47;;
7166;SDS011;3625;51.762;14.320;2022-09-30T07:31:40;14.77;;;10.67;;
7166;SDS011;3625;51.762;14.320;2022-09-30T07:34:09;13.20;;;11.53;;
7166;SDS011;3625;51.762;14.320;2022-09-30T07:36:39;16.60;;;13.07;;
7166;SDS011;3625;51.762;14.320;2022-09-30T07:39:09;16.03;;;12.63;;
7166;SDS011;3625;51.762;14.320;2022-09-30T07:41:38;15.70;;;12.07;;
7166;SDS011;3625;51.762;14.320;2022-09-30T07:44:07;14.70;;;12.93;;
7166;SDS011;3625;51.762;14.320;2022-09-30T07:46:41;14.17;;;11.73;;
7166;SDS011;3625;51.762;14.320;2022-09-30T07:49:11;16.67;;;11.90;;
7166;SDS011;3625;51.762;14.320;2022-09-30T07:51:52;12.80;;;10.90;;
7166;SDS011;3625;51.762;14.320;2022-09-30T07:54:23;13.13;;;11.30;;
7166;SDS011;3625;51.762;14.320;2022-09-30T07:56:55;14.43;;;12.10;;
7166;SDS011;3625;51.762;14.320;2022-09-30T07:59:40;12.47;;;10.70;;
7166;SDS011;3625;51.762;14.320;2022-09-30T08:02:11;12.97;;;11.03;;
7166;SDS011;3625;51.762;14.320;2022-09-30T08:04:42;13.30;;;11.90;;
7166;SDS011;3625;51.762;14.320;2022-09-30T08:07:14;13.17;;;10.83;;
7166;SDS011;3625;51.762;14.320;2022-09-30T08:09:44;13.07;;;11.20;;
7166;SDS011;3625;51.762;14.320;2022-09-30T08:12:13;15.30;;;11.13;;
7166;SDS011;3625;51.762;14.320;2022-09-30T08:14:42;17.47;;;12.10;;
7166;SDS011;3625;51.762;14.320;2022-09-30T08:17:10;16.73;;;12.17;;
7166;SDS011;3625;51.762;14.320;2022-09-30T08:19:40;14.63;;;11.97;;
7166;SDS011;3625;51.762;14.320;2022-09-30T08:22:10;13.83;;;11.10;;
7166;SDS011;3625;51.762;14.320;2022-09-30T08:24:40;14.33;;;12.30;;
7166;SDS011;3625;51.762;14.320;2022-09-30T08:27:09;14.97;;;13.37;;
7166;SDS011;3625;51.762;14.320;2022-09-30T08:29:38;12.80;;;11.50;;
7166;SDS011;3625;51.762;14.320;2022-09-30T08:32:28;15.20;;;11.57;;
7166;SDS011;3625;51.762;14.320;2022-09-30T08:34:57;12.97;;;11.67;;
7166;SDS011;3625;51.762;14.320;2022-09-30T08:37:26;12.67;;;10.73;;
7166;SDS011;3625;51.762;14.320;2022-09-30T08:39:56;12.70;;;10.83;;
7166;SDS011;3625;51.762;14.320;2022-09-30T08:42:32;12.77;;;11.20;;
7166;SDS011;3625;51.762;14.320;2022-09-30T08:45:27;16.80;;;12.50;;
7166;SDS011;3625;51.762;14.320;2022-09-30T08:48:10;14.47;;;12.97;;
7166;SDS011;3625;51.762;14.320;2022-09-30T08:50:59;17.20;;;12.67;;
7166;SDS011;3625;51.762;14.320;2022-09-30T08:53:46;11.63;;;10.23;;
7166;SDS011;3625;51.762;14.320;2022-09-30T08:56:18;15.90;;;11.30;;
7166;SDS011;3625;51.762;14.320;2022-09-30T08:58:53;15.23;;;12.70;;
7166;SDS011;3625;51.762;14.320;2022-09-30T09:01:29;12.03;;;10.83;;
7166;SDS011;3625;51.762;14.320;2022-09-30T09:04:01;12.77;;;11.20;;
7166;SDS011;3625;51.762;14.320;2022-09-30T09:06:33;14.50;;;11.90;;
7166;SDS011;3625;51.762;14.320;2022-09-30T09:09:15;13.47;;;10.53;;
7166;SDS011;3625;51.762;14.320;2022-09-30T09:12:00;13.57;;;12.17;;
7166;SDS011;3625;51.762;14.320;2022-09-30T09:14:48;13.50;;;11.43;;
7166;SDS011;3625;51.762;14.320;2022-09-30T09:17:31;13.20;;;11.30;;
7166;SDS011;3625;51.762;14.320;2022-09-30T09:20:35;12.70;;;10.20;;
7166;SDS011;3625;51.762;14.320;2022-09-30T09:23:08;13.13;;;10.50;;
7166;SDS011;3625;51.762;14.320;2022-09-30T09:25:40;13.80;;;10.47;;
7166;SDS011;3625;51.762;14.320;2022-09-30T09:28:16;12.17;;;10.93;;
7166;SDS011;3625;51.762;14.320;2022-09-30T09:30:55;11.27;;;10.03;;
7166;SDS011;3625;51.762;14.320;2022-09-30T09:33:27;12.60;;;11.30;;
7166;SDS011;3625;51.762;14.320;2022-09-30T09:36:04;12.87;;;10.57;;
7166;SDS011;3625;51.762;14.320;2022-09-30T09:38:45;14.23;;;11.50;;
7166;SDS011;3625;51.762;14.320;2022-09-30T09:41:30;13.07;;;9.97;;
7166;SDS011;3625;51.762;14.320;2022-09-30T09:44:10;12.10;;;9.53;;
7166;SDS011;3625;51.762;14.320;2022-09-30T09:46:58;11.00;;;8.87;;
7166;SDS011;3625;51.762;14.320;2022-09-30T09:49:31;10.90;;;9.07;;
7166;SDS011;3625;51.762;14.320;2022-09-30T09:52:10;10.32;;;9.20;;
7166;SDS011;3625;51.762;14.320;2022-09-30T09:55:07;10.75;;;9.57;;
7166;SDS011;3625;51.762;14.320;2022-09-30T09:57:37;11.40;;;8.90;;
7166;SDS011;3625;51.762;14.320;2022-09-30T10:00:09;9.57;;;8.60;;
7166;SDS011;3625;51.762;14.320;2022-09-30T10:03:10;9.60;;;8.30;;
7166;SDS011;3625;51.762;14.320;2022-09-30T10:05:44;8.90;;;7.97;;
7166;SDS011;3625;51.762;14.320;2022-09-30T10:08:27;10.73;;;9.57;;
7166;SDS011;3625;51.762;14.320;2022-09-30T10:10:58;12.97;;;9.80;;
7166;SDS011;3625;51.762;14.320;2022-09-30T10:13:29;8.97;;;8.07;;
7166;SDS011;3625;51.762;14.320;2022-09-30T10:16:19;9.03;;;7.30;;
7166;SDS011;3625;51.762;14.320;2022-09-30T10:18:55;8.02;;;7.22;;
7166;SDS011;3625;51.762;14.320;2022-09-30T10:21:25;8.30;;;6.90;;
7166;SDS011;3625;51.762;14.320;2022-09-30T10:23:55;10.07;;;6.77;;
7166;SDS011;3625;51.762;14.320;2022-09-30T10:26:25;7.60;;;6.45;;
7166;SDS011;3625;51.762;14.320;2022-09-30T10:28:56;7.18;;;6.43;;
7166;SDS011;3625;51.762;14.320;2022-09-30T10:31:29;8.70;;;6.95;;
7166;SDS011;3625;51.762;14.320;2022-09-30T10:34:07;7.15;;;5.85;;
7166;SDS011;3625;51.762;14.320;2022-09-30T10:36:45;6.95;;;6.15;;
7166;SDS011;3625;51.762;14.320;2022-09-30T10:39:17;6.63;;;5.43;;
7166;SDS011;3625;51.762;14.320;2022-09-30T10:41:50;6.63;;;5.87;;
7166;SDS011;3625;51.762;14.320;2022-09-30T10:44:29;6.00;;;5.30;;
7166;SDS011;3625;51.762;14.320;2022-09-30T10:47:00;4.82;;;4.43;;
7166;SDS011;3625;51.762;14.320;2022-09-30T10:49:32;6.60;;;4.95;;
7166;SDS011;3625;51.762;14.320;2022-09-30T10:52:15;7.70;;;5.15;;
7166;SDS011;3625;51.762;14.320;2022-09-30T10:54:49;6.53;;;4.65;;
7166;SDS011;3625;51.762;14.320;2022-09-30T10:57:21;5.28;;;4.45;;
7166;SDS011;3625;51.762;14.320;2022-09-30T10:59:53;5.68;;;4.50;;
7166;SDS011;3625;51.762;14.320;2022-09-30T11:02:30;7.22;;;4.90;;
7166;SDS011;3625;51.762;14.320;2022-09-30T11:05:10;5.80;;;5.07;;
7166;SDS011;3625;51.762;14.320;2022-09-30T11:07:47;5.78;;;4.22;;
7166;SDS011;3625;51.762;14.320;2022-09-30T11:10:26;4.75;;;4.00;;
7166;SDS011;3625;51.762;14.320;2022-09-30T11:13:06;3.75;;;3.45;;
7166;SDS011;3625;51.762;14.320;2022-09-30T11:15:55;5.57;;;4.90;;
7166;SDS011;3625;51.762;14.320;2022-09-30T11:18:32;6.40;;;4.90;;
7166;SDS011;3625;51.762;14.320;2022-09-30T11:21:05;6.78;;;4.65;;
7166;SDS011;3625;51.762;14.320;2022-09-30T11:23:42;5.78;;;4.38;;
7166;SDS011;3625;51.762;14.320;2022-09-30T11:26:17;5.10;;;4.28;;
7166;SDS011;3625;51.762;14.320;2022-09-30T11:32:00;5.93;;;4.13;;
7166;SDS011;3625;51.762;14.320;2022-09-30T11:34:47;5.18;;;4.53;;
7166;SDS011;3625;51.762;14.320;2022-09-30T11:37:26;4.68;;;4.20;;
7166;SDS011;3625;51.762;14.320;2022-09-30T11:40:13;5.00;;;3.80;;
7166;SDS011;3625;51.762;14.320;2022-09-30T11:43:05;4.72;;;3.78;;
7166;SDS011;3625;51.762;14.320;2022-09-30T11:46:09;4.53;;;4.13;;
7166;SDS011;3625;51.762;14.320;2022-09-30T11:48:56;6.65;;;4.50;;
7166;SDS011;3625;51.762;14.320;2022-09-30T11:51:46;5.60;;;4.15;;
7166;SDS011;3625;51.762;14.320;2022-09-30T11:54:30;4.38;;;3.28;;
7166;SDS011;3625;51.762;14.320;2022-09-30T11:57:20;3.28;;;2.97;;
7166;SDS011;3625;51.762;14.320;2022-09-30T11:59:58;3.70;;;3.10;;
7166;SDS011;3625;51.762;14.320;2022-09-30T12:02:37;5.65;;;3.53;;
7166;SDS011;3625;51.762;14.320;2022-09-30T12:05:10;4.70;;;2.63;;
7166;SDS011;3625;51.762;14.320;2022-09-30T12:07:45;3.90;;;2.75;;
7166;SDS011;3625;51.762;14.320;2022-09-30T12:10:18;4.70;;;2.92;;
7166;SDS011;3625;51.762;14.320;2022-09-30T12:12:52;2.80;;;2.60;;
7166;SDS011;3625;51.762;14.320;2022-09-30T12:15:24;4.53;;;3.00;;
7166;SDS011;3625;51.762;14.320;2022-09-30T12:17:56;3.05;;;2.83;;
7166;SDS011;3625;51.762;14.320;2022-09-30T12:20:29;4.22;;;2.70;;
7166;SDS011;3625;51.762;14.320;2022-09-30T12:23:08;2.80;;;2.60;;
7166;SDS011;3625;51.762;14.320;2022-09-30T12:25:48;3.50;;;2.40;;
7166;SDS011;3625;51.762;14.320;2022-09-30T12:28:26;2.45;;;2.25;;
7166;SDS011;3625;51.762;14.320;2022-09-30T12:31:24;3.47;;;2.58;;
7166;SDS011;3625;51.762;14.320;2022-09-30T12:34:21;3.05;;;2.60;;
7166;SDS011;3625;51.762;14.320;2022-09-30T12:37:14;4.00;;;3.00;;
7166;SDS011;3625;51.762;14.320;2022-09-30T12:40:16;2.60;;;2.40;;
7166;SDS011;3625;51.762;14.320;2022-09-30T12:43:32;3.97;;;2.80;;
7166;SDS011;3625;51.762;14.320;2022-09-30T12:46:45;4.40;;;2.75;;
7166;SDS011;3625;51.762;14.320;2022-09-30T12:49:30;3.25;;;2.55;;
7166;SDS011;3625;51.762;14.320;2022-09-30T12:52:04;2.65;;;2.45;;
7166;SDS011;3625;51.762;14.320;2022-09-30T12:54:41;2.65;;;2.30;;
7166;SDS011;3625;51.762;14.320;2022-09-30T12:57:25;3.20;;;2.40;;
7166;SDS011;3625;51.762;14.320;2022-09-30T12:59:59;2.45;;;2.25;;
7166;SDS011;3625;51.762;14.320;2022-09-30T13:02:33;4.95;;;2.63;;
7166;SDS011;3625;51.762;14.320;2022-09-30T13:08:25;2.38;;;2.25;;
7166;SDS011;3625;51.762;14.320;2022-09-30T13:17:02;2.53;;;2.10;;
7166;SDS011;3625;51.762;14.320;2022-09-30T13:19:53;2.42;;;2.22;;
7166;SDS011;3625;51.762;14.320;2022-09-30T13:25:24;2.53;;;2.33;;
7166;SDS011;3625;51.762;14.320;2022-09-30T13:28:24;3.30;;;2.25;;
7166;SDS011;3625;51.762;14.320;2022-09-30T13:31:12;4.82;;;2.20;;
7166;SDS011;3625;51.762;14.320;2022-09-30T13:33:46;3.65;;;2.50;;
7166;SDS011;3625;51.762;14.320;2022-09-30T13:36:37;3.03;;;2.30;;
7166;SDS011;3625;51.762;14.320;2022-09-30T13:39:18;3.25;;;1.90;;
7166;SDS011;3625;51.762;14.320;2022-09-30T13:42:00;2.35;;;2.00;;
7166;SDS011;3625;51.762;14.320;2022-09-30T13:44:43;2.30;;;1.95;;
7166;SDS011;3625;51.762;14.320;2022-09-30T13:47:28;2.25;;;1.92;;
7166;SDS011;3625;51.762;14.320;2022-09-30T13:50:05;2.85;;;2.03;;
7166;SDS011;3625;51.762;14.320;2022-09-30T13:52:42;2.13;;;1.92;;
7166;SDS011;3625;51.762;14.320;2022-09-30T13:55:19;3.03;;;2.10;;
7166;SDS011;3625;51.762;14.320;2022-09-30T13:57:56;2.30;;;1.80;;
7166;SDS011;3625;51.762;14.320;2022-09-30T14:00:44;2.00;;;1.80;;
7166;SDS011;3625;51.762;14.320;2022-09-30T14:03:35;5.32;;;1.70;;
7166;SDS011;3625;51.762;14.320;2022-09-30T14:06:26;2.25;;;1.77;;
7166;SDS011;3625;51.762;14.320;2022-09-30T14:09:15;2.92;;;2.17;;
7166;SDS011;3625;51.762;14.320;2022-09-30T14:12:10;2.30;;;1.92;;
7166;SDS011;3625;51.762;14.320;2022-09-30T14:15:02;2.33;;;1.80;;
7166;SDS011;3625;51.762;14.320;2022-09-30T14:17:57;3.60;;;2.03;;
7166;SDS011;3625;51.762;14.320;2022-09-30T14:24:09;5.63;;;4.25;;
7166;SDS011;3625;51.762;14.320;2022-09-30T14:29:51;2.30;;;2.00;;
7166;SDS011;3625;51.762;14.320;2022-09-30T14:32:31;2.97;;;1.98;;
7166;SDS011;3625;51.762;14.320;2022-09-30T14:35:10;2.30;;;2.10;;
7166;SDS011;3625;51.762;14.320;2022-09-30T14:37:46;2.53;;;2.13;;
7166;SDS011;3625;51.762;14.320;2022-09-30T14:40:19;2.50;;;2.30;;
7166;SDS011;3625;51.762;14.320;2022-09-30T14:42:53;2.30;;;2.10;;
7166;SDS011;3625;51.762;14.320;2022-09-30T14:45:28;2.40;;;2.20;;
7166;SDS011;3625;51.762;14.320;2022-09-30T14:48:03;2.35;;;2.17;;
7166;SDS011;3625;51.762;14.320;2022-09-30T14:50:39;3.20;;;2.35;;
7166;SDS011;3625;51.762;14.320;2022-09-30T14:55:58;2.92;;;2.60;;
7166;SDS011;3625;51.762;14.320;2022-09-30T14:58:30;3.05;;;2.05;;
7166;SDS011;3625;51.762;14.320;2022-09-30T15:01:10;3.30;;;2.47;;
7166;SDS011;3625;51.762;14.320;2022-09-30T15:03:43;2.97;;;2.70;;
7166;SDS011;3625;51.762;14.320;2022-09-30T15:06:16;4.72;;;2.65;;
7166;SDS011;3625;51.762;14.320;2022-09-30T15:08:48;7.40;;;4.25;;
7166;SDS011;3625;51.762;14.320;2022-09-30T15:11:27;4.70;;;2.88;;
7166;SDS011;3625;51.762;14.320;2022-09-30T15:14:03;4.03;;;2.67;;
7166;SDS011;3625;51.762;14.320;2022-09-30T15:16:43;3.13;;;2.83;;
7166;SDS011;3625;51.762;14.320;2022-09-30T15:19:17;3.15;;;2.80;;
7166;SDS011;3625;51.762;14.320;2022-09-30T15:21:48;3.10;;;2.85;;
7166;SDS011;3625;51.762;14.320;2022-09-30T15:24:18;3.35;;;2.80;;
7166;SDS011;3625;51.762;14.320;2022-09-30T15:26:52;2.97;;;2.67;;
7166;SDS011;3625;51.762;14.320;2022-09-30T15:29:22;3.10;;;2.42;;
7166;SDS011;3625;51.762;14.320;2022-09-30T15:31:53;2.83;;;2.50;;
7166;SDS011;3625;51.762;14.320;2022-09-30T15:34:28;2.25;;;2.05;;
7166;SDS011;3625;51.762;14.320;2022-09-30T15:37:00;2.95;;;2.30;;
7166;SDS011;3625;51.762;14.320;2022-09-30T15:39:32;2.42;;;2.28;;
7166;SDS011;3625;51.762;14.320;2022-09-30T15:42:31;3.35;;;2.50;;
7166;SDS011;3625;51.762;14.320;2022-09-30T15:45:16;2.80;;;2.30;;
7166;SDS011;3625;51.762;14.320;2022-09-30T15:48:01;3.25;;;2.13;;
7166;SDS011;3625;51.762;14.320;2022-09-30T15:50:40;2.45;;;2.17;;
7166;SDS011;3625;51.762;14.320;2022-09-30T15:53:13;3.70;;;2.25;;
7166;SDS011;3625;51.762;14.320;2022-09-30T15:55:51;3.13;;;2.50;;
7166;SDS011;3625;51.762;14.320;2022-09-30T15:58:35;5.13;;;4.25;;
7166;SDS011;3625;51.762;14.320;2022-09-30T16:01:16;4.32;;;3.05;;
7166;SDS011;3625;51.762;14.320;2022-09-30T16:03:50;2.85;;;2.58;;
7166;SDS011;3625;51.762;14.320;2022-09-30T16:06:23;3.70;;;2.80;;
7166;SDS011;3625;51.762;14.320;2022-09-30T16:08:58;3.97;;;3.05;;
7166;SDS011;3625;51.762;14.320;2022-09-30T16:11:29;3.17;;;2.90;;
7166;SDS011;3625;51.762;14.320;2022-09-30T16:14:04;3.50;;;2.85;;
7166;SDS011;3625;51.762;14.320;2022-09-30T16:16:38;3.78;;;2.60;;
7166;SDS011;3625;51.762;14.320;2022-09-30T16:19:13;2.80;;;2.60;;
7166;SDS011;3625;51.762;14.320;2022-09-30T16:21:45;2.92;;;2.67;;
7166;SDS011;3625;51.762;14.320;2022-09-30T16:30:00;5.55;;;3.97;;
7166;SDS011;3625;51.762;14.320;2022-09-30T16:32:29;4.30;;;3.83;;
7166;SDS011;3625;51.762;14.320;2022-09-30T16:35:06;5.05;;;3.50;;
7166;SDS011;3625;51.762;14.320;2022-09-30T16:37:41;4.45;;;3.35;;
7166;SDS011;3625;51.762;14.320;2022-09-30T16:40:20;4.00;;;3.45;;
7166;SDS011;3625;51.762;14.320;2022-09-30T16:42:51;4.30;;;3.50;;
7166;SDS011;3625;51.762;14.320;2022-09-30T16:45:22;4.63;;;3.67;;
7166;SDS011;3625;51.762;14.320;2022-09-30T16:47:52;5.57;;;4.03;;
7166;SDS011;3625;51.762;14.320;2022-09-30T16:50:26;4.90;;;3.97;;
7166;SDS011;3625;51.762;14.320;2022-09-30T16:53:01;6.55;;;4.35;;
7166;SDS011;3625;51.762;14.320;2022-09-30T16:55:30;6.15;;;4.63;;
7166;SDS011;3625;51.762;14.320;2022-09-30T16:58:01;6.63;;;4.90;;
7166;SDS011;3625;51.762;14.320;2022-09-30T17:00:32;5.65;;;4.88;;
7166;SDS011;3625;51.762;14.320;2022-09-30T17:03:01;5.47;;;4.80;;
7166;SDS011;3625;51.762;14.320;2022-09-30T17:05:30;6.00;;;5.00;;
7166;SDS011;3625;51.762;14.320;2022-09-30T17:07:59;6.03;;;5.43;;
7166;SDS011;3625;51.762;14.320;2022-09-30T17:10:29;6.57;;;4.67;;
7166;SDS011;3625;51.762;14.320;2022-09-30T17:13:01;6.97;;;5.60;;
7166;SDS011;3625;51.762;14.320;2022-09-30T17:15:31;15.27;;;11.67;;
7166;SDS011;3625;51.762;14.320;2022-09-30T17:18:03;9.47;;;6.20;;
7166;SDS011;3625;51.762;14.320;2022-09-30T17:20:34;7.37;;;6.60;;
7166;SDS011;3625;51.762;14.320;2022-09-30T17:23:03;22.50;;;14.77;;
7166;SDS011;3625;51.762;14.320;2022-09-30T17:25:37;12.77;;;7.83;;
7166;SDS011;3625;51.762;14.320;2022-09-30T17:28:08;7.67;;;6.07;;
7166;SDS011;3625;51.762;14.320;2022-09-30T17:30:40;8.33;;;6.77;;
7166;SDS011;3625;51.762;14.320;2022-09-30T17:33:10;12.83;;;7.87;;
7166;SDS011;3625;51.762;14.320;2022-09-30T17:35:39;26.33;;;14.50;;
7166;SDS011;3625;51.762;14.320;2022-09-30T17:38:10;12.73;;;7.37;;
7166;SDS011;3625;51.762;14.320;2022-09-30T17:40:40;8.63;;;6.67;;
7166;SDS011;3625;51.762;14.320;2022-09-30T17:43:28;7.67;;;6.53;;
7166;SDS011;3625;51.762;14.320;2022-09-30T17:45:58;8.43;;;6.43;;
7166;SDS011;3625;51.762;14.320;2022-09-30T17:48:35;9.43;;;8.03;;
7166;SDS011;3625;51.762;14.320;2022-09-30T17:51:05;12.30;;;9.73;;
7166;SDS011;3625;51.762;14.320;2022-09-30T17:53:34;10.27;;;9.17;;
7166;SDS011;3625;51.762;14.320;2022-09-30T17:56:04;11.97;;;8.60;;
7166;SDS011;3625;51.762;14.320;2022-09-30T17:58:35;10.60;;;9.20;;
7166;SDS011;3625;51.762;14.320;2022-09-30T18:01:06;11.87;;;10.37;;
7166;SDS011;3625;51.762;14.320;2022-09-30T18:03:36;10.83;;;8.43;;
7166;SDS011;3625;51.762;14.320;2022-09-30T18:06:06;14.53;;;8.23;;
7166;SDS011;3625;51.762;14.320;2022-09-30T18:08:35;10.87;;;7.77;;
7166;SDS011;3625;51.762;14.320;2022-09-30T18:11:04;8.70;;;7.80;;
7166;SDS011;3625;51.762;14.320;2022-09-30T18:13:33;9.83;;;8.20;;
7166;SDS011;3625;51.762;14.320;2022-09-30T18:16:03;7.93;;;7.13;;
7166;SDS011;3625;51.762;14.320;2022-09-30T18:18:34;8.03;;;7.07;;
7166;SDS011;3625;51.762;14.320;2022-09-30T18:21:03;8.40;;;7.37;;
7166;SDS011;3625;51.762;14.320;2022-09-30T18:23:33;8.50;;;7.10;;
7166;SDS011;3625;51.762;14.320;2022-09-30T18:26:04;11.27;;;8.57;;
7166;SDS011;3625;51.762;14.320;2022-09-30T18:28:33;10.90;;;8.40;;
7166;SDS011;3625;51.762;14.320;2022-09-30T18:31:10;12.27;;;9.27;;
7166;SDS011;3625;51.762;14.320;2022-09-30T18:33:54;10.57;;;8.30;;
7166;SDS011;3625;51.762;14.320;2022-09-30T18:36:26;12.83;;;8.60;;
7166;SDS011;3625;51.762;14.320;2022-09-30T18:38:58;8.60;;;7.70;;
7166;SDS011;3625;51.762;14.320;2022-09-30T18:41:32;8.50;;;7.67;;
7166;SDS011;3625;51.762;14.320;2022-09-30T18:44:10;8.97;;;7.30;;
7166;SDS011;3625;51.762;14.320;2022-09-30T18:46:42;9.63;;;8.60;;
7166;SDS011;3625;51.762;14.320;2022-09-30T18:49:14;7.77;;;6.97;;
7166;SDS011;3625;51.762;14.320;2022-09-30T18:51:43;9.77;;;7.97;;
7166;SDS011;3625;51.762;14.320;2022-09-30T18:54:12;11.83;;;8.07;;
7166;SDS011;3625;51.762;14.320;2022-09-30T18:56:41;7.83;;;6.97;;
7166;SDS011;3625;51.762;14.320;2022-09-30T18:59:10;6.90;;;6.03;;
7166;SDS011;3625;51.762;14.320;2022-09-30T19:01:48;7.40;;;6.70;;
7166;SDS011;3625;51.762;14.320;2022-09-30T19:04:18;7.43;;;6.23;;
7166;SDS011;3625;51.762;14.320;2022-09-30T19:06:47;7.73;;;6.33;;
7166;SDS011;3625;51.762;14.320;2022-09-30T19:09:16;8.13;;;7.00;;
7166;SDS011;3625;51.762;14.320;2022-09-30T19:11:45;7.57;;;6.43;;
7166;SDS011;3625;51.762;14.320;2022-09-30T19:14:18;7.70;;;6.90;;
7166;SDS011;3625;51.762;14.320;2022-09-30T19:16:51;6.97;;;6.27;;
7166;SDS011;3625;51.762;14.320;2022-09-30T19:19:23;8.53;;;6.50;;
7166;SDS011;3625;51.762;14.320;2022-09-30T19:21:54;8.20;;;7.10;;
7166;SDS011;3625;51.762;14.320;2022-09-30T19:24:26;8.67;;;6.30;;
7166;SDS011;3625;51.762;14.320;2022-09-30T19:26:55;8.63;;;7.00;;
7166;SDS011;3625;51.762;14.320;2022-09-30T19:29:24;7.57;;;6.73;;
7166;SDS011;3625;51.762;14.320;2022-09-30T19:31:53;7.80;;;7.00;;
7166;SDS011;3625;51.762;14.320;2022-09-30T19:34:24;8.97;;;7.70;;
7166;SDS011;3625;51.762;14.320;2022-09-30T19:36:58;29.27;;;18.80;;
7166;SDS011;3625;51.762;14.320;2022-09-30T19:39:26;12.87;;;9.33;;
7166;SDS011;3625;51.762;14.320;2022-09-30T19:42:11;10.43;;;9.33;;
7166;SDS011;3625;51.762;14.320;2022-09-30T19:44:42;9.93;;;8.37;;
7166;SDS011;3625;51.762;14.320;2022-09-30T19:47:11;9.17;;;8.27;;
7166;SDS011;3625;51.762;14.320;2022-09-30T19:49:45;11.47;;;9.30;;
7166;SDS011;3625;51.762;14.320;2022-09-30T19:52:17;10.13;;;8.77;;
7166;SDS011;3625;51.762;14.320;2022-09-30T19:55:11;22.50;;;15.73;;
7166;SDS011;3625;51.762;14.320;2022-09-30T19:58:16;13.77;;;9.97;;
7166;SDS011;3625;51.762;14.320;2022-09-30T20:00:53;15.73;;;10.07;;
7166;SDS011;3625;51.762;14.320;2022-09-30T20:03:57;12.13;;;9.77;;
7166;SDS011;3625;51.762;14.320;2022-09-30T20:06:35;13.30;;;10.60;;
7166;SDS011;3625;51.762;14.320;2022-09-30T20:09:07;12.53;;;9.97;;
7166;SDS011;3625;51.762;14.320;2022-09-30T20:11:40;12.97;;;10.17;;
7166;SDS011;3625;51.762;14.320;2022-09-30T20:14:14;13.53;;;10.00;;
7166;SDS011;3625;51.762;14.320;2022-09-30T20:17:00;9.70;;;8.70;;
7166;SDS011;3625;51.762;14.320;2022-09-30T20:19:29;9.73;;;8.43;;
7166;SDS011;3625;51.762;14.320;2022-09-30T20:21:59;10.13;;;9.00;;
7166;SDS011;3625;51.762;14.320;2022-09-30T20:24:28;10.33;;;9.00;;
7166;SDS011;3625;51.762;14.320;2022-09-30T20:26:57;11.27;;;8.67;;
7166;SDS011;3625;51.762;14.320;2022-09-30T20:29:26;9.73;;;8.33;;
7166;SDS011;3625;51.762;14.320;2022-09-30T20:31:58;9.83;;;8.13;;
7166;SDS011;3625;51.762;14.320;2022-09-30T20:34:27;9.10;;;7.57;;
7166;SDS011;3625;51.762;14.320;2022-09-30T20:37:03;11.43;;;8.40;;
7166;SDS011;3625;51.762;14.320;2022-09-30T20:39:32;10.30;;;8.37;;
7166;SDS011;3625;51.762;14.320;2022-09-30T20:42:05;9.17;;;8.23;;
7166;SDS011;3625;51.762;14.320;2022-09-30T20:44:34;9.70;;;7.87;;